Time;durP1;ratioP1;P1;durP2;ratioP2;P2;SDS_P1;SDS_P2;PMS_P1;PMS_P2;Temp;Humidity;BMP_temperature;BMP_pressure;BME280_temperature;BME280_humidity;BME280_pressure;Samples;Min_cycle;Max_cycle;Signal;HPM_P1;HPM_P2
2021/11/30 00:01:00;;;;;;;10.52;7.38;;;;;;;6.88;78.76;100358.81;6188663;23;20367;-77
2021/11/30 00:03:34;;;;;;;6.07;5.57;;;;;;;6.72;78.99;100337.88;6160098;23;20332;-76
2021/11/30 00:06:04;;;;;;;7.53;6.20;;;;;;;6.78;79.11;100359.44;6160672;23;20001;-77
2021/11/30 00:08:58;;;;;;;7.03;5.53;;;;;;;6.57;79.16;100338.38;6162661;23;20226;-78
2021/11/30 00:11:26;;;;;;;5.45;5.05;;;;;;;6.61;79.21;100347.69;6141034;23;20424;-77
2021/11/30 00:13:54;;;;;;;6.38;5.68;;;;;;;6.63;79.39;100340.16;6159462;23;20020;-76
2021/11/30 00:16:19;;;;;;;5.72;5.43;;;;;;;6.62;80.28;100343.91;6157821;23;20732;-77
2021/11/30 00:18:47;;;;;;;5.30;5.00;;;;;;;6.64;79.93;100341.78;6135775;23;20076;-78
2021/11/30 00:21:17;;;;;;;5.50;5.03;;;;;;;6.59;79.91;100333.53;6162142;23;20433;-78
2021/11/30 00:23:48;;;;;;;5.40;5.00;;;;;;;6.49;79.65;100322.47;6165415;23;20328;-78
2021/11/30 00:26:21;;;;;;;5.82;5.38;;;;;;;6.42;79.93;100317.97;6142465;23;20012;-78
2021/11/30 00:28:52;;;;;;;5.13;4.82;;;;;;;6.40;80.21;100332.88;6142255;23;20882;-78
2021/11/30 00:31:17;;;;;;;5.00;4.60;;;;;;;6.58;80.10;100361.75;6191993;23;20005;-77
2021/11/30 00:33:45;;;;;;;4.32;4.13;;;;;;;6.66;80.46;100355.97;6189296;23;20065;-76
2021/11/30 00:36:23;;;;;;;;;;;;;;;;;;;;;
2021/11/30 00:38:49;;;;;;;5.05;4.55;;;;;;;6.79;81.17;100355.66;6165772;23;20054;-77
2021/11/30 00:41:35;;;;;;;5.13;4.82;;;;;;;6.82;80.69;100347.03;6189508;23;20001;-76
2021/11/30 00:44:14;;;;;;;;;;;;;;;;;;;;;
2021/11/30 00:46:41;;;;;;;5.50;5.07;;;;;;;6.89;80.22;100337.88;6188470;23;20372;-76
2021/11/30 00:49:36;;;;;;;;;;;;;;;;;;;;;
2021/11/30 00:52:03;;;;;;;8.80;4.68;;;;;;;7.10;80.65;100366.28;6183540;23;20029;-77
2021/11/30 00:54:31;;;;;;;5.88;4.88;;;;;;;7.00;80.54;100339.75;6138834;23;20016;-77
2021/11/30 00:57:02;;;;;;;5.25;4.82;;;;;;;6.95;80.53;100337.75;6165021;23;20005;-78
2021/11/30 00:59:59;;;;;;;5.22;4.82;;;;;;;7.27;80.96;100369.03;6161425;23;20005;-78
2021/11/30 01:02:27;;;;;;;5.15;4.85;;;;;;;7.14;80.93;100349.25;6187835;23;20412;-78
2021/11/30 01:04:53;;;;;;;5.78;4.95;;;;;;;7.18;80.54;100346.03;6165357;23;20019;-78
2021/11/30 01:07:31;;;;;;;7.05;4.40;;;;;;;7.24;80.67;100347.75;6188861;23;20072;-78
2021/11/30 01:09:57;;;;;;;4.47;4.28;;;;;;;7.41;80.64;100354.03;6142058;23;20016;-78
2021/11/30 01:12:49;;;;;;;;;;;;;;;;;;;;;
2021/11/30 01:15:21;;;;;;;4.88;4.57;;;;;;;7.42;79.77;100355.69;6188551;23;20040;-76
2021/11/30 01:17:47;;;;;;;4.95;4.60;;;;;;;7.39;80.86;100350.75;6162812;23;20388;-78
2021/11/30 01:20:13;;;;;;;6.90;4.95;;;;;;;7.47;80.33;100361.22;6191678;23;20004;-79
2021/11/30 01:23:08;;;;;;;4.20;3.90;;;;;;;7.41;80.49;100345.88;6165087;23;20005;-82
2021/11/30 01:25:34;;;;;;;4.78;4.47;;;;;;;7.46;80.79;100365.03;6165089;23;20040;-79
2021/11/30 01:28:03;;;;;;;5.40;5.00;;;;;;;7.40;79.62;100354.28;6191274;23;20080;-77
2021/11/30 01:30:46;;;;;;;5.53;4.97;;;;;;;7.39;80.34;100342.59;6162133;23;20533;-77
2021/11/30 01:33:11;;;;;;;4.50;4.30;;;;;;;7.46;80.79;100348.69;6190589;23;20024;-75
2021/11/30 01:35:44;;;;;;;4.38;4.10;;;;;;;7.57;80.26;100354.31;6188028;23;20005;-76
2021/11/30 01:38:17;;;;;;;4.35;4.15;;;;;;;7.50;80.11;100344.41;6165726;23;20005;-77
2021/11/30 01:40:45;;;;;;;6.35;4.60;;;;;;;7.44;79.41;100339.94;6160377;23;20380;-79
2021/11/30 01:43:19;;;;;;;7.63;4.20;;;;;;;7.48;80.64;100343.81;6163679;23;20005;-76
2021/11/30 01:46:08;;;;;;;6.03;4.93;;;;;;;7.50;80.14;100344.41;6139714;23;20088;-77
2021/11/30 01:51:19;;;;;;;4.17;3.90;;;;;;;7.68;79.45;100351.50;6188882;23;20065;-78
2021/11/30 01:53:53;;;;;;;6.38;4.30;;;;;;;7.62;79.16;100338.03;6189852;23;20136;-79
2021/11/30 01:56:19;;;;;;;4.03;3.72;;;;;;;7.69;79.17;100357.75;6190442;23;20001;-78
2021/11/30 01:58:53;;;;;;;4.93;4.35;;;;;;;7.75;79.45;100366.81;6166104;23;20101;-80
2021/11/30 02:01:24;;;;;;;4.32;4.03;;;;;;;7.77;78.75;100362.78;6160720;23;20025;-73
2021/11/30 02:03:52;;;;;;;3.97;3.78;;;;;;;7.76;79.29;100352.97;6128106;23;20045;-73
2021/11/30 02:06:21;;;;;;;3.92;3.42;;;;;;;7.85;78.97;100362.34;6132536;23;20001;-74
2021/11/30 02:08:49;;;;;;;5.00;4.60;;;;;;;7.81;78.97;100344.88;6154042;23;20060;-74
2021/11/30 02:11:17;;;;;;;3.55;3.28;;;;;;;7.92;79.04;100355.91;6134655;23;20090;-75
2021/11/30 02:13:42;;;;;;;3.05;2.85;;;;;;;7.86;78.44;100342.22;6130367;23;20337;-74
2021/11/30 02:16:18;;;;;;;5.03;2.97;;;;;;;7.84;78.74;100338.94;6158980;23;20009;-75
2021/11/30 02:18:44;;;;;;;6.57;3.42;;;;;;;7.93;78.14;100346.66;6132786;23;20012;-75
2021/11/30 02:21:11;;;;;;;7.07;3.58;;;;;;;7.94;78.51;100330.06;6157972;23;20004;-75
2021/11/30 02:26:19;;;;;;;3.40;2.88;;;;;;;8.07;78.13;100331.59;6166492;23;20317;-73
2021/11/30 02:28:51;;;;;;;3.38;3.17;;;;;;;7.96;78.24;100324.41;6159949;23;20005;-75
2021/11/30 02:31:23;;;;;;;2.60;2.50;;;;;;;7.99;77.90;100315.72;6157725;23;20009;-74
2021/11/30 02:33:49;;;;;;;2.97;2.78;;;;;;;8.10;78.67;100336.56;6131119;23;20451;-76
2021/11/30 02:36:25;;;;;;;2.80;2.58;;;;;;;8.08;78.33;100316.94;6156383;23;20017;-76
2021/11/30 02:38:51;;;;;;;;;;;;;;;8.20;77.84;100323.06;6159250;23;20036;-77
2021/11/30 02:41:36;;;;;;;;;;;;;;;8.24;77.92;100336.22;6134827;23;19909;-74
2021/11/30 02:44:04;;;;;;;2.25;2.15;;;;;;;8.13;78.02;100317.00;6158557;23;19908;-74
2021/11/30 02:46:44;;;;;;;2.03;1.92;;;;;;;8.27;77.54;100331.06;6134301;23;20127;-78
2021/11/30 02:49:17;;;;;;;2.50;2.30;;;;;;;8.14;77.45;100309.66;6158352;23;20428;-73
2021/11/30 02:52:08;;;;;;;3.17;2.45;;;;;;;8.20;77.70;100312.16;6131820;23;20012;-74
2021/11/30 02:54:41;;;;;;;6.10;2.05;;;;;;;8.11;78.22;100313.69;6126826;23;20394;-73
2021/11/30 02:57:14;;;;;;;2.15;2.03;;;;;;;8.23;78.25;100327.19;6127976;23;20076;-74
2021/11/30 02:59:49;;;;;;;1.77;1.70;;;;;;;8.21;78.18;100311.09;6155870;23;20010;-72
2021/11/30 03:02:20;;;;;;;3.75;1.95;;;;;;;8.30;78.42;100313.41;6152664;23;20341;-73
2021/11/30 03:04:51;;;;;;;2.58;2.03;;;;;;;8.24;78.16;100292.63;6157448;23;20013;-72
2021/11/30 03:07:38;;;;;;;1.50;1.50;;;;;;;8.34;78.42;100304.44;6156282;23;20012;-72
2021/11/30 03:10:19;;;;;;;1.98;1.77;;;;;;;8.35;77.76;100305.25;6153716;23;20032;-70
2021/11/30 03:12:57;;;;;;;1.80;1.70;;;;;;;8.30;77.86;100294.31;6128160;23;20032;-72
2021/11/30 03:15:25;;;;;;;1.80;1.70;;;;;;;8.45;77.68;100296.44;6106102;23;20019;-72
2021/11/30 03:17:59;;;;;;;1.85;1.70;;;;;;;8.28;78.28;100272.78;6104293;23;20013;-72
2021/11/30 03:20:24;;;;;;;1.88;1.77;;;;;;;8.31;77.85;100287.78;6130229;23;20005;-73
2021/11/30 03:22:50;;;;;;;1.45;1.35;;;;;;;8.38;78.67;100282.97;6106072;23;20063;-73
2021/11/30 03:25:19;;;;;;;1.95;1.85;;;;;;;8.36;78.21;100275.03;6127480;23;20001;-72
2021/11/30 03:27:47;;;;;;;1.95;1.70;;;;;;;8.47;78.40;100295.09;6153211;23;20009;-74
2021/11/30 03:30:20;;;;;;;1.60;1.50;;;;;;;8.41;78.70;100273.47;6131877;23;20020;-75
2021/11/30 03:35:29;;;;;;;1.75;1.65;;;;;;;8.59;78.08;100275.06;6137744;23;20063;-73
2021/11/30 03:38:16;;;;;;;10.23;1.85;;;;;;;8.55;77.82;100283.72;6158581;23;20432;-75
2021/11/30 03:40:41;;;;;;;2.33;1.52;;;;;;;8.50;78.65;100264.59;6159713;23;20072;-72
2021/11/30 03:43:18;;;;;;;1.70;1.60;;;;;;;8.60;78.16;100279.41;6160689;23;20013;-73
2021/11/30 03:46:01;;;;;;;3.40;1.45;;;;;;;8.53;78.53;100263.28;6158078;23;20093;-74
2021/11/30 03:48:27;;;;;;;1.45;1.35;;;;;;;8.65;78.44;100276.75;6132602;23;20001;-73
2021/11/30 03:50:55;;;;;;;0.93;0.93;;;;;;;8.68;77.78;100282.50;6129358;23;20008;-74
2021/11/30 03:53:28;;;;;;;3.05;1.30;;;;;;;8.64;77.95;100267.75;6160809;23;20021;-73
2021/11/30 03:55:54;;;;;;;5.53;1.10;;;;;;;8.64;78.44;100256.03;6131917;23;20031;-74
2021/11/30 03:58:20;;;;;;;0.88;0.88;;;;;;;8.79;77.80;100278.00;6159536;23;20429;-74
2021/11/30 04:00:45;;;;;;;5.60;1.10;;;;;;;8.70;78.80;100249.53;6162575;23;20018;-73
2021/11/30 04:03:21;;;;;;;9.70;1.27;;;;;;;8.74;78.44;100253.41;6133831;23;20014;-75
2021/11/30 04:05:46;;;;;;;2.50;1.27;;;;;;;8.84;78.46;100269.03;6160179;23;20024;-74
2021/11/30 04:08:14;;;;;;;1.27;0.73;;;;;;;8.91;78.91;100277.84;6159499;23;20005;-75
2021/11/30 04:10:40;;;;;;;1.40;1.00;;;;;;;8.85;79.01;100263.31;6137053;23;20069;-75
2021/11/30 04:13:05;;;;;;;0.70;0.57;;;;;;;8.98;78.93;100269.41;6133969;23;20317;-75
2021/11/30 04:15:34;;;;;;;1.08;0.50;;;;;;;9.14;78.56;100267.66;6110570;23;20009;-75
2021/11/30 04:17:59;;;;;;;6.68;1.00;;;;;;;9.12;78.49;100258.91;6159378;23;20634;-76
2021/11/30 04:20:25;;;;;;;1.23;0.90;;;;;;;9.05;78.42;100242.75;6161678;23;20411;-77
2021/11/30 04:22:57;;;;;;;1.65;0.80;;;;;;;9.21;78.53;100266.38;6133021;23;20006;-78
2021/11/30 04:25:25;;;;;;;2.10;0.73;;;;;;;9.12;78.79;100250.72;6133581;23;20001;-77
2021/11/30 04:27:51;;;;;;;1.65;0.45;;;;;;;9.28;78.77;100262.59;6111701;23;20090;-77
2021/11/30 04:30:17;;;;;;;4.70;1.35;;;;;;;9.22;78.40;100248.91;6135327;23;20069;-76
2021/11/30 04:32:45;;;;;;;1.48;0.77;;;;;;;9.30;78.44;100254.94;6161286;23;20412;-77
2021/11/30 04:35:32;;;;;;;4.32;0.90;;;;;;;9.23;78.73;100238.81;6135209;23;20016;-77
2021/11/30 04:37:59;;;;;;;5.15;0.75;;;;;;;9.26;78.57;100233.66;6136412;23;20005;-78
2021/11/30 04:40:25;;;;;;;0.52;0.32;;;;;;;9.33;78.67;100229.88;6136387;23;20413;-77
2021/11/30 04:43:01;;;;;;;;;;;;;;;;;;;;;
2021/11/30 04:45:42;;;;;;;2.88;0.60;;;;;;;9.30;78.90;100224.94;6136138;23;20059;-76
2021/11/30 04:48:07;;;;;;;4.82;0.60;;;;;;;9.31;78.92;100211.03;6145414;23;20002;-77
2021/11/30 04:50:51;;;;;;;;;;;;;;;;;;;;;
2021/11/30 04:53:20;;;;;;;1.52;0.55;;;;;;;9.45;78.71;100214.13;6161003;23;20357;-75
2021/11/30 04:55:50;;;;;;;4.00;2.35;;;;;;;9.45;79.07;100230.50;6134642;23;20033;-75
2021/11/30 04:58:16;;;;;;;3.70;1.10;;;;;;;9.58;78.35;100262.00;6158455;23;20100;-76
2021/11/30 05:00:41;;;;;;;1.55;1.05;;;;;;;9.58;78.63;100243.69;6161009;23;20002;-75
2021/11/30 05:03:14;;;;;;;3.97;1.20;;;;;;;9.54;78.84;100236.28;6160445;23;20017;-76
2021/11/30 05:05:40;;;;;;;1.58;0.60;;;;;;;9.63;78.57;100251.09;6160525;23;20009;-75
2021/11/30 05:08:22;;;;;;;5.07;1.05;;;;;;;9.58;78.62;100227.31;6159870;23;20078;-74
2021/11/30 05:10:50;;;;;;;4.30;0.93;;;;;;;9.65;78.07;100250.81;6135277;23;20006;-73
2021/11/30 05:13:17;;;;;;;2.25;0.73;;;;;;;9.60;78.63;100238.78;6133273;23;20085;-73
2021/11/30 05:15:42;;;;;;;6.00;1.23;;;;;;;9.72;78.20;100245.94;6160168;23;20006;-73
2021/11/30 05:18:08;;;;;;;2.97;0.77;;;;;;;9.75;78.38;100231.75;6157153;23;20012;-74
2021/11/30 05:20:34;;;;;;;1.48;0.63;;;;;;;9.71;78.49;100234.22;6132151;23;20028;-74
2021/11/30 05:23:01;;;;;;;1.58;0.47;;;;;;;9.68;78.54;100222.97;6162336;23;20045;-77
2021/11/30 05:25:37;;;;;;;2.72;0.55;;;;;;;9.70;78.16;100220.81;6157054;23;20012;-78
2021/11/30 05:28:05;;;;;;;1.83;0.60;;;;;;;9.73;78.13;100220.28;6134897;23;20013;-78
2021/11/30 05:30:36;;;;;;;4.57;0.73;;;;;;;9.78;78.68;100239.41;6157971;23;20171;-76
2021/11/30 05:33:04;;;;;;;2.22;0.60;;;;;;;9.78;78.77;100236.69;6133558;23;20009;-77
2021/11/30 05:35:30;;;;;;;3.65;0.88;;;;;;;9.71;78.10;100227.91;6157409;23;20081;-78
2021/11/30 05:37:57;;;;;;;2.40;0.68;;;;;;;9.68;78.95;100228.44;6158773;23;20006;-79
2021/11/30 05:40:23;;;;;;;0.85;0.30;;;;;;;9.82;78.63;100237.81;6134520;23;20005;-79
2021/11/30 05:42:51;;;;;;;1.38;0.85;;;;;;;9.77;78.24;100227.69;6160428;23;20053;-78
2021/11/30 05:45:16;;;;;;;3.40;0.65;;;;;;;9.86;78.31;100230.72;6107502;23;20021;-75
2021/11/30 05:47:42;;;;;;;2.78;1.15;;;;;;;9.92;78.23;100229.66;6132159;23;20005;-77
2021/11/30 05:50:11;;;;;;;2.13;0.82;;;;;;;9.90;78.31;100220.91;6134311;23;20068;-77
2021/11/30 05:52:36;;;;;;;3.35;0.60;;;;;;;9.87;77.68;100216.00;6159024;23;20005;-77
2021/11/30 05:55:04;;;;;;;3.40;0.95;;;;;;;9.89;78.14;100210.25;6153462;23;20036;-77
2021/11/30 05:57:31;;;;;;;5.30;0.77;;;;;;;10.02;77.58;100214.41;6155563;23;20005;-76
2021/11/30 05:59:59;;;;;;;0.55;0.55;;;;;;;10.10;77.35;100224.81;6130500;23;20687;-77
2021/11/30 06:02:38;;;;;;;1.77;0.63;;;;;;;10.03;76.95;100207.84;6159119;23;20417;-77
2021/11/30 06:05:06;;;;;;;3.20;0.52;;;;;;;10.09;76.94;100213.06;6135293;23;20010;-76
2021/11/30 06:07:32;;;;;;;0.73;0.63;;;;;;;10.10;77.46;100220.19;6130936;23;20002;-77
2021/11/30 06:10:02;;;;;;;5.63;1.13;;;;;;;10.06;77.59;100240.09;6157371;23;20413;-76
2021/11/30 06:12:28;;;;;;;4.03;0.95;;;;;;;10.01;78.68;100226.44;6160018;23;20044;-76
2021/11/30 06:14:55;;;;;;;1.20;1.02;;;;;;;10.05;78.13;100211.16;6085452;23;20018;-75
2021/11/30 06:17:21;;;;;;;0.98;0.80;;;;;;;10.15;77.55;100238.50;6134067;23;20013;-77
2021/11/30 06:19:46;;;;;;;2.95;0.90;;;;;;;10.13;78.02;100237.94;6157859;23;20075;-77
2021/11/30 06:22:12;;;;;;;2.00;1.05;;;;;;;10.04;77.92;100226.69;6132752;23;20009;-75
2021/11/30 06:24:37;;;;;;;3.97;0.98;;;;;;;10.07;78.77;100244.47;6130681;23;20016;-76
2021/11/30 06:27:03;;;;;;;1.10;1.00;;;;;;;10.17;78.36;100252.72;6160896;23;20005;-75
2021/11/30 06:29:29;;;;;;;2.33;0.88;;;;;;;10.21;78.64;100264.75;6131273;23;20009;-76
2021/11/30 06:31:58;;;;;;;3.80;0.73;;;;;;;10.10;78.37;100235.75;6131871;23;20005;-76
2021/11/30 06:34:29;;;;;;;3.17;0.80;;;;;;;10.17;78.24;100236.31;6136172;23;20006;-77
2021/11/30 06:36:55;;;;;;;2.00;0.70;;;;;;;10.13;78.32;100229.75;6134051;23;20012;-77
2021/11/30 06:39:20;;;;;;;0.60;0.40;;;;;;;10.20;78.18;100241.25;6087510;23;20009;-75
2021/11/30 06:41:50;;;;;;;3.85;0.85;;;;;;;10.33;78.21;100255.50;6157840;23;20020;-77
2021/11/30 06:44:17;;;;;;;0.95;0.60;;;;;;;10.29;78.76;100256.06;6159785;23;20012;-75
2021/11/30 06:46:43;;;;;;;6.25;1.00;;;;;;;10.37;78.49;100256.66;6157195;23;20009;-75
2021/11/30 06:49:15;;;;;;;2.30;1.02;;;;;;;10.42;78.86;100256.66;6159763;23;20009;-75
2021/11/30 06:51:44;;;;;;;0.73;0.40;;;;;;;10.36;78.73;100255.00;6130707;23;20010;-75
2021/11/30 06:54:10;;;;;;;0.80;0.60;;;;;;;10.46;78.56;100244.09;6134499;23;20321;-80
2021/11/30 06:56:35;;;;;;;2.38;0.68;;;;;;;10.40;77.96;100239.72;6113783;23;20066;-79
2021/11/30 06:59:03;;;;;;;2.40;0.68;;;;;;;10.39;78.57;100232.59;6134261;23;20006;-81
2021/11/30 07:01:32;;;;;;;2.40;0.70;;;;;;;10.49;78.03;100249.03;6133256;23;20012;-77
2021/11/30 07:04:07;;;;;;;0.50;0.50;;;;;;;10.39;77.93;100224.38;6134250;23;20033;-76
2021/11/30 07:14:21;;;;;;;0.70;0.70;;;;;;;10.30;78.02;100222.13;6136788;23;20044;-77
2021/11/30 07:17:03;;;;;;;;;;;;;;;;;;;;;
2021/11/30 07:19:37;;;;;;;2.47;0.77;;;;;;;10.35;78.32;100231.47;6159982;23;20025;-77
2021/11/30 07:22:06;;;;;;;0.50;0.50;;;;;;;10.26;78.99;100223.75;6134234;23;20081;-75
2021/11/30 07:24:32;;;;;;;1.02;0.75;;;;;;;10.33;78.39;100239.09;6158898;23;20005;-75
2021/11/30 07:26:59;;;;;;;0.50;0.50;;;;;;;10.20;78.96;100222.13;6109726;23;20113;-75
2021/11/30 07:29:25;;;;;;;1.30;0.43;;;;;;;10.18;79.60;100237.97;6135755;23;20012;-76
2021/11/30 07:31:50;;;;;;;4.00;0.50;;;;;;;10.17;79.56;100233.59;6107952;23;20014;-75
2021/11/30 07:34:16;;;;;;;1.90;0.40;;;;;;;10.27;79.22;100236.34;6136095;23;20101;-75
2021/11/30 07:36:51;;;;;;;0.43;0.22;;;;;;;10.16;79.54;100229.19;6107041;23;20006;-74
2021/11/30 07:39:19;;;;;;;1.85;0.55;;;;;;;10.19;80.25;100239.63;6132393;23;20029;-75
2021/11/30 07:41:45;;;;;;;0.60;0.40;;;;;;;10.11;80.64;100231.94;6109697;23;20006;-75
2021/11/30 07:44:18;;;;;;;10.70;0.88;;;;;;;10.14;81.07;100237.66;6160440;23;20009;-74
2021/11/30 07:46:44;;;;;;;1.85;0.32;;;;;;;10.11;80.84;100242.84;6133962;23;20001;-74
2021/11/30 07:49:10;;;;;;;0.63;0.40;;;;;;;10.02;81.67;100228.06;6159800;23;20099;-73
2021/11/30 07:51:52;;;;;;;2.53;0.47;;;;;;;10.00;82.32;100231.03;6135256;23;20435;-76
2021/11/30 07:54:21;;;;;;;1.20;0.40;;;;;;;9.92;82.69;100224.19;6111460;23;20005;-75
2021/11/30 07:56:49;;;;;;;3.33;0.60;;;;;;;9.92;82.85;100224.19;6135595;23;20016;-74
2021/11/30 07:59:15;;;;;;;0.50;0.40;;;;;;;9.95;82.60;100217.38;6159192;23;20033;-78
2021/11/30 08:01:41;;;;;;;6.82;0.55;;;;;;;9.81;83.17;100211.56;6159621;23;20001;-79
2021/11/30 08:04:06;;;;;;;3.58;0.40;;;;;;;9.88;83.91;100225.81;6132563;23;20097;-76
2021/11/30 08:06:40;;;;;;;3.33;0.80;;;;;;;9.71;84.44;100214.25;6131818;23;20012;-79
2021/11/30 08:09:07;;;;;;;0.70;0.47;;;;;;;9.74;84.76;100219.22;6135618;23;20006;-76
2021/11/30 08:11:33;;;;;;;4.05;0.50;;;;;;;9.81;84.37;100219.75;6158685;23;20005;-75
2021/11/30 08:14:11;;;;;;;;;;;;;;;;;;;;;
2021/11/30 08:16:38;;;;;;;4.25;0.60;;;;;;;9.98;84.03;100226.97;6133063;23;20037;-78
2021/11/30 08:19:11;;;;;;;3.75;1.83;;;;;;;9.88;83.99;100194.97;6134553;23;20017;-79
2021/11/30 08:21:49;;;;;;;;;;;;;;;;;;;;;
2021/11/30 08:24:26;;;;;;;1.00;0.60;;;;;;;10.12;83.12;100222.66;6162997;23;20029;-77
2021/11/30 08:26:54;;;;;;;0.90;0.50;;;;;;;10.25;82.67;100234.97;6134636;23;20476;-78
2021/11/30 08:29:39;;;;;;;;;;;;;;;;;;;;;
2021/11/30 08:32:14;;;;;;;0.65;0.65;;;;;;;10.26;82.52;100218.28;6160370;23;20389;-79
2021/11/30 08:34:43;;;;;;;4.38;0.50;;;;;;;10.27;82.26;100222.69;6134182;23;20104;-78
2021/11/30 08:37:17;;;;;;;4.70;0.60;;;;;;;10.27;82.68;100217.22;6134641;23;20006;-79
2021/11/30 08:39:43;;;;;;;1.05;0.70;;;;;;;10.37;82.09;100223.84;6136859;23;20016;-78
2021/11/30 08:42:39;;;;;;;;;;;;;;;;;;;;;
2021/11/30 08:45:32;;;;;;;1.05;0.50;;;;;;;10.72;81.35;100235.91;6155424;23;20024;-79
2021/11/30 08:47:58;;;;;;;1.35;0.50;;;;;;;10.76;80.93;100237.03;6140465;23;20033;-79
2021/11/30 08:50:38;;;;;;;0.30;0.20;;;;;;;10.69;80.64;100228.25;6135204;23;20013;-78
2021/11/30 08:53:07;;;;;;;0.40;0.30;;;;;;;10.80;80.40;100238.13;6136737;23;20425;-79
2021/11/30 08:55:35;;;;;;;1.30;0.35;;;;;;;10.81;79.46;100234.31;6163275;23;20005;-78
2021/11/30 08:58:23;;;;;;;0.75;0.50;;;;;;;10.89;79.71;100250.16;6136880;23;20005;-79
2021/11/30 09:00:56;;;;;;;1.45;0.30;;;;;;;10.88;79.74;100240.34;6136243;23;20389;-78
2021/11/30 09:03:24;;;;;;;1.50;0.30;;;;;;;10.86;79.13;100239.78;6135732;23;20390;-79
2021/11/30 09:05:50;;;;;;;0.32;0.20;;;;;;;10.75;79.42;100251.81;6163186;23;20028;-78
2021/11/30 09:08:20;;;;;;;0.10;0.05;;;;;;;10.72;80.29;100236.75;6111742;23;20377;-78
2021/11/30 09:10:45;;;;;;;0.93;0.30;;;;;;;10.87;80.14;100259.75;6114085;23;20112;-78
2021/11/30 09:13:11;;;;;;;1.58;0.30;;;;;;;10.77;79.77;100244.97;6160505;23;20691;-79
2021/11/30 09:15:40;;;;;;;0.10;0.10;;;;;;;10.90;79.88;100242.78;6161987;23;20113;-79
2021/11/30 09:18:06;;;;;;;0.28;0.20;;;;;;;10.78;79.68;100235.66;6160494;23;20008;-78
2021/11/30 09:20:43;;;;;;;0.32;0.32;;;;;;;10.93;79.32;100239.50;6159652;23;20029;-78
2021/11/30 09:23:16;;;;;;;0.32;0.17;;;;;;;10.96;79.08;100242.50;6161198;23;20013;-79
2021/11/30 09:25:42;;;;;;;5.40;0.22;;;;;;;11.10;79.07;100242.00;6161481;23;20022;-78
2021/11/30 09:28:07;;;;;;;0.25;0.20;;;;;;;11.08;78.92;100244.16;6135740;23;20006;-78
2021/11/30 09:30:38;;;;;;;1.92;0.30;;;;;;;11.10;78.53;100237.31;6134477;23;20306;-77
2021/11/30 09:33:06;;;;;;;0.65;0.30;;;;;;;11.03;78.92;100225.84;6160879;23;20080;-79
2021/11/30 09:35:40;;;;;;;0.25;0.25;;;;;;;11.06;78.85;100235.41;6133036;23;20078;-78
2021/11/30 09:38:13;;;;;;;3.10;0.30;;;;;;;11.11;78.59;100233.50;6110308;23;20084;-78
2021/11/30 09:40:39;;;;;;;0.50;0.17;;;;;;;11.02;78.82;100250.72;6109851;23;20037;-77
2021/11/30 09:43:07;;;;;;;0.40;0.13;;;;;;;10.98;79.81;100240.34;6137185;23;20078;-77
2021/11/30 09:45:34;;;;;;;0.38;0.28;;;;;;;10.93;79.72;100232.13;6109630;23;20671;-78
2021/11/30 09:48:04;;;;;;;0.50;0.10;;;;;;;11.07;79.16;100253.44;6137479;23;20503;-78
2021/11/30 09:50:31;;;;;;;1.55;0.28;;;;;;;11.06;79.16;100257.31;6135682;23;20006;-78
2021/11/30 09:52:59;;;;;;;1.20;0.30;;;;;;;10.92;79.72;100235.97;6135854;23;20213;-77
2021/11/30 09:55:30;;;;;;;0.20;0.10;;;;;;;11.05;79.74;100252.91;6086830;23;20009;-77
2021/11/30 09:57:58;;;;;;;0.50;0.10;;;;;;;11.03;79.96;100241.44;6135266;23;20009;-77
2021/11/30 10:00:34;;;;;;;;;;;;;;;;;;;;;
2021/11/30 10:03:01;;;;;;;1.55;0.20;;;;;;;11.00;79.97;100243.59;6137478;23;20049;-78
2021/11/30 10:05:30;;;;;;;0.88;0.30;;;;;;;10.98;80.20;100223.09;6159231;23;20017;-79
2021/11/30 10:07:59;;;;;;;1.45;0.45;;;;;;;10.97;79.85;100238.69;6084463;23;20092;-77
2021/11/30 10:10:32;;;;;;;4.25;0.30;;;;;;;10.95;79.96;100229.94;6159990;23;20064;-79
2021/11/30 10:13:00;;;;;;;1.40;0.30;;;;;;;11.04;79.63;100240.31;6157713;23;20012;-77
2021/11/30 10:15:46;;;;;;;1.75;0.50;;;;;;;10.99;79.04;100220.09;6137445;23;20012;-77
2021/11/30 10:18:24;;;;;;;2.15;0.40;;;;;;;11.06;79.44;100228.00;6158949;23;20049;-78
2021/11/30 10:20:53;;;;;;;1.38;0.40;;;;;;;11.08;79.74;100253.22;6138603;23;20096;-78
2021/11/30 10:23:19;;;;;;;2.50;0.30;;;;;;;11.06;79.71;100224.47;6135125;23;20080;-77
2021/11/30 10:25:53;;;;;;;1.25;0.40;;;;;;;11.18;79.11;100219.53;6137617;23;20034;-79
2021/11/30 10:28:24;;;;;;;0.32;0.32;;;;;;;11.16;78.87;100205.31;6158186;23;20002;-77
2021/11/30 10:30:52;;;;;;;2.08;0.30;;;;;;;11.24;79.45;100214.88;6160739;23;20006;-79
2021/11/30 10:33:23;;;;;;;2.05;0.57;;;;;;;11.32;79.63;100211.59;6133622;23;20084;-77
2021/11/30 10:35:57;;;;;;;1.42;0.20;;;;;;;11.39;79.52;100214.03;6131404;23;20005;-78
2021/11/30 10:38:32;;;;;;;4.50;0.63;;;;;;;11.48;79.73;100234.28;6132679;23;20008;-78
2021/11/30 10:41:17;;;;;;;0.75;0.20;;;;;;;11.43;80.00;100223.31;6157758;23;20424;-77
2021/11/30 10:43:55;;;;;;;0.45;0.20;;;;;;;11.47;80.24;100225.22;6158681;23;20024;-79
2021/11/30 10:46:37;;;;;;;0.55;0.30;;;;;;;11.44;81.29;100224.97;6161395;23;20437;-77
2021/11/30 10:49:13;;;;;;;;;;;;;;;;;;;;;
2021/11/30 10:51:53;;;;;;;0.10;0.10;;;;;;;11.32;80.75;100206.91;6161204;23;20040;-78
2021/11/30 10:54:21;;;;;;;0.63;0.17;;;;;;;11.42;80.88;100206.09;6160041;23;19998;-79
2021/11/30 10:57:06;;;;;;;0.22;0.10;;;;;;;11.49;80.92;100200.31;6162149;23;20001;-78
2021/11/30 10:59:39;;;;;;;0.30;0.20;;;;;;;11.53;81.18;100213.19;6161605;23;20016;-77
2021/11/30 11:02:49;;;;;;;0.45;0.30;;;;;;;11.64;81.19;100197.53;6161028;23;20061;-77
2021/11/30 11:05:24;;;;;;;0.28;0.20;;;;;;;11.88;80.17;100214.19;6132320;23;20042;-78
2021/11/30 11:08:18;;;;;;;1.70;0.17;;;;;;;11.97;79.84;100210.88;6130458;23;20068;-78
2021/11/30 11:11:03;;;;;;;1.30;0.30;;;;;;;11.88;79.49;100185.94;6129782;23;20005;-78
2021/11/30 11:13:35;;;;;;;1.77;0.40;;;;;;;11.87;79.73;100198.84;6104757;23;20432;-78
2021/11/30 11:16:08;;;;;;;0.75;0.30;;;;;;;11.90;79.36;100189.25;6105065;23;20029;-78
2021/11/30 11:18:35;;;;;;;1.17;0.43;;;;;;;11.98;78.71;100196.88;6102455;23;20321;-78
2021/11/30 11:21:27;;;;;;;1.23;0.28;;;;;;;12.00;78.93;100185.63;6128287;23;20074;-77
2021/11/30 11:24:12;;;;;;;1.67;0.38;;;;;;;11.95;79.01;100191.97;6102974;23;20009;-77
2021/11/30 11:26:38;;;;;;;3.85;0.38;;;;;;;11.98;78.79;100196.06;6130115;23;20440;-78
2021/11/30 11:29:10;;;;;;;0.47;0.20;;;;;;;11.92;79.51;100197.19;6103024;23;19998;-77
2021/11/30 11:31:40;;;;;;;0.10;0.10;;;;;;;11.88;79.08;100200.47;6104753;23;20010;-76
2021/11/30 11:34:07;;;;;;;0.45;0.20;;;;;;;11.64;79.50;100181.09;6130739;23;20001;-78
2021/11/30 11:36:33;;;;;;;0.20;0.13;;;;;;;11.60;80.44;100176.47;6101450;23;20097;-77
2021/11/30 11:39:00;;;;;;;5.85;0.50;;;;;;;11.70;80.14;100190.94;6104787;23;20002;-79
2021/11/30 11:41:31;;;;;;;0.10;0.10;;;;;;;11.65;80.96;100192.88;6104482;23;20065;-78
2021/11/30 11:43:58;;;;;;;0.32;0.20;;;;;;;11.47;81.70;100191.56;6103803;23;20049;-78
2021/11/30 11:46:25;;;;;;;0.30;0.20;;;;;;;11.39;82.64;100178.44;6128524;23;20006;-79
2021/11/30 11:49:02;;;;;;;0.70;0.20;;;;;;;11.41;82.80;100187.19;6128771;23;20013;-77
2021/11/30 11:51:50;;;;;;;1.10;0.30;;;;;;;11.34;83.97;100171.06;6129361;23;20013;-80
2021/11/30 11:54:35;;;;;;;0.55;0.20;;;;;;;11.38;83.92;100177.63;6128056;23;20002;-78
2021/11/30 11:57:05;;;;;;;1.38;0.30;;;;;;;11.37;84.16;100186.91;6131439;23;20029;-78
2021/11/30 11:59:34;;;;;;;0.95;0.15;;;;;;;11.23;84.23;100153.84;6123069;23;20065;-78
2021/11/30 12:02:24;;;;;;;3.25;0.13;;;;;;;11.38;84.01;100171.34;6129539;23;20021;-78
2021/11/30 12:05:03;;;;;;;0.73;0.20;;;;;;;11.42;84.49;100161.44;6156308;23;20045;-78
2021/11/30 12:08:01;;;;;;;1.35;0.10;;;;;;;11.43;83.65;100157.63;6132484;23;20001;-77
2021/11/30 12:10:36;;;;;;;0.68;0.17;;;;;;;11.37;84.15;100139.56;6157536;23;20017;-78
2021/11/30 12:13:02;;;;;;;4.70;0.15;;;;;;;11.49;83.48;100156.50;6157353;23;20424;-78
2021/11/30 12:16:14;;;;;;;0.95;0.20;;;;;;;11.44;83.72;100149.13;6159818;23;20033;-78
2021/11/30 12:21:33;;;;;;;1.65;0.22;;;;;;;11.66;83.13;100161.66;6138056;23;20005;-77
2021/11/30 12:24:00;;;;;;;0.40;0.17;;;;;;;11.68;82.61;100121.09;6135849;23;20035;-78
2021/11/30 12:26:33;;;;;;;0.25;0.00;;;;;;;11.91;81.96;100152.50;6159625;23;20419;-77